sensor_id;sensor_type;location;lat;lon;timestamp;P1;durP1;ratioP1;P2;durP2;ratioP2
52686;SDS011;38584;49.426;8.396;2023-02-12T00:01:25;43.58;;;23.95;;
52686;SDS011;38584;49.426;8.396;2023-02-12T00:03:52;40.30;;;24.00;;
52686;SDS011;38584;49.426;8.396;2023-02-12T00:06:21;41.92;;;24.08;;
52686;SDS011;38584;49.426;8.396;2023-02-12T00:08:51;44.40;;;23.65;;
52686;SDS011;38584;49.426;8.396;2023-02-12T00:11:19;41.90;;;23.33;;
52686;SDS011;38584;49.426;8.396;2023-02-12T00:13:49;37.90;;;22.75;;
52686;SDS011;38584;49.426;8.396;2023-02-12T00:16:21;38.60;;;22.67;;
52686;SDS011;38584;49.426;8.396;2023-02-12T00:18:51;42.55;;;23.85;;
52686;SDS011;38584;49.426;8.396;2023-02-12T00:21:17;40.60;;;23.70;;
52686;SDS011;38584;49.426;8.396;2023-02-12T00:23:49;37.78;;;22.23;;
52686;SDS011;38584;49.426;8.396;2023-02-12T00:26:16;40.33;;;23.90;;
52686;SDS011;38584;49.426;8.396;2023-02-12T00:28:43;40.75;;;22.75;;
52686;SDS011;38584;49.426;8.396;2023-02-12T00:31:22;39.90;;;22.58;;
52686;SDS011;38584;49.426;8.396;2023-02-12T00:33:49;35.55;;;21.45;;
52686;SDS011;38584;49.426;8.396;2023-02-12T00:36:30;37.95;;;21.90;;
52686;SDS011;38584;49.426;8.396;2023-02-12T00:38:56;38.97;;;21.77;;
52686;SDS011;38584;49.426;8.396;2023-02-12T00:41:23;36.50;;;21.42;;
52686;SDS011;38584;49.426;8.396;2023-02-12T00:43:50;37.42;;;21.70;;
52686;SDS011;38584;49.426;8.396;2023-02-12T00:46:15;36.28;;;22.08;;
52686;SDS011;38584;49.426;8.396;2023-02-12T00:48:41;40.38;;;21.58;;
52686;SDS011;38584;49.426;8.396;2023-02-12T00:51:10;39.20;;;22.23;;
52686;SDS011;38584;49.426;8.396;2023-02-12T00:53:42;38.92;;;21.90;;
52686;SDS011;38584;49.426;8.396;2023-02-12T00:56:07;38.10;;;22.17;;
52686;SDS011;38584;49.426;8.396;2023-02-12T00:58:33;35.78;;;20.83;;
52686;SDS011;38584;49.426;8.396;2023-02-12T01:01:04;36.83;;;22.15;;
52686;SDS011;38584;49.426;8.396;2023-02-12T01:03:29;39.08;;;22.05;;
52686;SDS011;38584;49.426;8.396;2023-02-12T01:05:58;39.47;;;22.15;;
52686;SDS011;38584;49.426;8.396;2023-02-12T01:08:26;40.20;;;22.00;;
52686;SDS011;38584;49.426;8.396;2023-02-12T01:11:02;39.05;;;22.13;;
52686;SDS011;38584;49.426;8.396;2023-02-12T01:13:29;37.53;;;22.70;;
52686;SDS011;38584;49.426;8.396;2023-02-12T01:18:51;39.75;;;23.08;;
52686;SDS011;38584;49.426;8.396;2023-02-12T01:21:18;37.58;;;21.45;;
52686;SDS011;38584;49.426;8.396;2023-02-12T01:23:49;42.13;;;22.50;;
52686;SDS011;38584;49.426;8.396;2023-02-12T01:26:15;40.45;;;22.80;;
52686;SDS011;38584;49.426;8.396;2023-02-12T01:28:41;35.78;;;21.27;;
52686;SDS011;38584;49.426;8.396;2023-02-12T01:31:17;37.15;;;21.83;;
52686;SDS011;38584;49.426;8.396;2023-02-12T01:33:54;41.47;;;22.08;;
52686;SDS011;38584;49.426;8.396;2023-02-12T01:36:20;38.40;;;23.30;;
52686;SDS011;38584;49.426;8.396;2023-02-12T01:38:56;39.90;;;22.98;;
52686;SDS011;38584;49.426;8.396;2023-02-12T01:41:31;40.88;;;21.73;;
52686;SDS011;38584;49.426;8.396;2023-02-12T01:44:05;41.50;;;22.17;;
52686;SDS011;38584;49.426;8.396;2023-02-12T01:46:32;38.80;;;22.13;;
52686;SDS011;38584;49.426;8.396;2023-02-12T01:48:57;44.30;;;23.23;;
52686;SDS011;38584;49.426;8.396;2023-02-12T01:51:23;43.25;;;23.90;;
52686;SDS011;38584;49.426;8.396;2023-02-12T01:53:52;40.53;;;22.33;;
52686;SDS011;38584;49.426;8.396;2023-02-12T01:56:19;40.67;;;23.23;;
52686;SDS011;38584;49.426;8.396;2023-02-12T01:58:45;39.38;;;23.60;;
52686;SDS011;38584;49.426;8.396;2023-02-12T02:01:21;40.80;;;24.17;;
52686;SDS011;38584;49.426;8.396;2023-02-12T02:03:54;43.15;;;24.77;;
52686;SDS011;38584;49.426;8.396;2023-02-12T02:06:34;42.67;;;24.40;;
52686;SDS011;38584;49.426;8.396;2023-02-12T02:09:00;41.75;;;24.42;;
52686;SDS011;38584;49.426;8.396;2023-02-12T02:11:26;42.95;;;24.90;;
52686;SDS011;38584;49.426;8.396;2023-02-12T02:14:13;42.03;;;24.08;;
52686;SDS011;38584;49.426;8.396;2023-02-12T02:28:44;44.33;;;25.45;;
52686;SDS011;38584;49.426;8.396;2023-02-12T02:34:33;44.63;;;25.55;;
52686;SDS011;38584;49.426;8.396;2023-02-12T02:43:06;44.60;;;25.95;;
52686;SDS011;38584;49.426;8.396;2023-02-12T02:45:36;46.55;;;27.15;;
52686;SDS011;38584;49.426;8.396;2023-02-12T02:48:16;47.13;;;26.52;;
52686;SDS011;38584;49.426;8.396;2023-02-12T02:50:51;51.63;;;27.98;;
52686;SDS011;38584;49.426;8.396;2023-02-12T02:53:40;43.33;;;25.60;;
52686;SDS011;38584;49.426;8.396;2023-02-12T02:56:12;45.25;;;25.02;;
52686;SDS011;38584;49.426;8.396;2023-02-12T02:58:42;45.47;;;26.10;;
52686;SDS011;38584;49.426;8.396;2023-02-12T03:03:48;45.97;;;25.42;;
52686;SDS011;38584;49.426;8.396;2023-02-12T03:06:37;44.60;;;25.73;;
52686;SDS011;38584;49.426;8.396;2023-02-12T03:09:12;44.92;;;25.35;;
52686;SDS011;38584;49.426;8.396;2023-02-12T03:11:45;41.88;;;24.83;;
52686;SDS011;38584;49.426;8.396;2023-02-12T03:14:27;44.17;;;26.88;;
52686;SDS011;38584;49.426;8.396;2023-02-12T03:19:24;41.92;;;25.13;;
52686;SDS011;38584;49.426;8.396;2023-02-12T03:21:54;40.95;;;24.90;;
52686;SDS011;38584;49.426;8.396;2023-02-12T03:24:29;44.28;;;25.20;;
52686;SDS011;38584;49.426;8.396;2023-02-12T03:27:10;43.08;;;25.58;;
52686;SDS011;38584;49.426;8.396;2023-02-12T03:29:39;42.00;;;25.00;;
52686;SDS011;38584;49.426;8.396;2023-02-12T03:32:17;45.70;;;25.75;;
52686;SDS011;38584;49.426;8.396;2023-02-12T03:37:52;44.95;;;24.52;;
52686;SDS011;38584;49.426;8.396;2023-02-12T03:40:41;42.60;;;26.58;;
52686;SDS011;38584;49.426;8.396;2023-02-12T03:46:21;48.47;;;27.58;;
52686;SDS011;38584;49.426;8.396;2023-02-12T03:51:18;46.78;;;26.13;;
52686;SDS011;38584;49.426;8.396;2023-02-12T03:54:07;41.67;;;25.25;;
52686;SDS011;38584;49.426;8.396;2023-02-12T03:56:38;49.88;;;28.27;;
52686;SDS011;38584;49.426;8.396;2023-02-12T03:59:23;45.92;;;29.02;;
52686;SDS011;38584;49.426;8.396;2023-02-12T04:01:50;49.67;;;29.65;;
52686;SDS011;38584;49.426;8.396;2023-02-12T04:04:23;46.70;;;28.00;;
52686;SDS011;38584;49.426;8.396;2023-02-12T04:06:49;46.40;;;28.42;;
52686;SDS011;38584;49.426;8.396;2023-02-12T04:09:20;46.67;;;28.77;;
52686;SDS011;38584;49.426;8.396;2023-02-12T04:11:53;44.78;;;27.83;;
52686;SDS011;38584;49.426;8.396;2023-02-12T04:17:29;46.45;;;29.58;;
52686;SDS011;38584;49.426;8.396;2023-02-12T04:20:09;43.08;;;28.05;;
52686;SDS011;38584;49.426;8.396;2023-02-12T04:31:15;45.67;;;29.00;;
52686;SDS011;38584;49.426;8.396;2023-02-12T04:33:46;41.83;;;27.60;;
52686;SDS011;38584;49.426;8.396;2023-02-12T04:36:28;46.28;;;27.90;;
52686;SDS011;38584;49.426;8.396;2023-02-12T04:38:58;46.60;;;27.20;;
52686;SDS011;38584;49.426;8.396;2023-02-12T04:41:29;44.50;;;27.55;;
52686;SDS011;38584;49.426;8.396;2023-02-12T04:43:58;45.47;;;27.80;;
52686;SDS011;38584;49.426;8.396;2023-02-12T04:46:23;51.67;;;28.88;;
52686;SDS011;38584;49.426;8.396;2023-02-12T04:48:55;47.28;;;28.65;;
52686;SDS011;38584;49.426;8.396;2023-02-12T04:51:22;43.87;;;27.47;;
52686;SDS011;38584;49.426;8.396;2023-02-12T04:53:50;46.72;;;28.30;;
52686;SDS011;38584;49.426;8.396;2023-02-12T04:56:18;43.33;;;27.23;;
52686;SDS011;38584;49.426;8.396;2023-02-12T04:58:46;47.35;;;27.10;;
52686;SDS011;38584;49.426;8.396;2023-02-12T05:01:11;40.97;;;25.60;;
52686;SDS011;38584;49.426;8.396;2023-02-12T05:03:42;42.38;;;27.13;;
52686;SDS011;38584;49.426;8.396;2023-02-12T05:06:08;46.65;;;28.75;;
52686;SDS011;38584;49.426;8.396;2023-02-12T05:08:34;41.85;;;26.27;;
52686;SDS011;38584;49.426;8.396;2023-02-12T05:11:06;43.08;;;25.50;;
52686;SDS011;38584;49.426;8.396;2023-02-12T05:13:51;41.47;;;26.42;;
52686;SDS011;38584;49.426;8.396;2023-02-12T05:16:20;47.72;;;26.40;;
52686;SDS011;38584;49.426;8.396;2023-02-12T05:18:48;43.70;;;27.45;;
52686;SDS011;38584;49.426;8.396;2023-02-12T05:21:16;41.88;;;25.98;;
52686;SDS011;38584;49.426;8.396;2023-02-12T05:23:45;43.28;;;26.77;;
52686;SDS011;38584;49.426;8.396;2023-02-12T05:26:15;44.30;;;25.80;;
52686;SDS011;38584;49.426;8.396;2023-02-12T05:28:42;42.95;;;26.48;;
52686;SDS011;38584;49.426;8.396;2023-02-12T05:31:17;41.95;;;26.45;;
52686;SDS011;38584;49.426;8.396;2023-02-12T05:33:44;44.50;;;26.52;;
52686;SDS011;38584;49.426;8.396;2023-02-12T05:36:17;44.72;;;26.80;;
52686;SDS011;38584;49.426;8.396;2023-02-12T05:38:47;43.50;;;25.48;;
52686;SDS011;38584;49.426;8.396;2023-02-12T05:41:14;39.30;;;25.27;;
52686;SDS011;38584;49.426;8.396;2023-02-12T05:43:43;41.33;;;26.05;;
52686;SDS011;38584;49.426;8.396;2023-02-12T05:46:09;40.30;;;26.25;;
52686;SDS011;38584;49.426;8.396;2023-02-12T05:48:41;39.65;;;25.48;;
52686;SDS011;38584;49.426;8.396;2023-02-12T05:51:14;41.50;;;27.05;;
52686;SDS011;38584;49.426;8.396;2023-02-12T05:53:41;43.20;;;25.98;;
52686;SDS011;38584;49.426;8.396;2023-02-12T05:58:39;42.67;;;25.38;;
52686;SDS011;38584;49.426;8.396;2023-02-12T06:01:26;39.67;;;25.05;;
52686;SDS011;38584;49.426;8.396;2023-02-12T06:06:38;42.67;;;24.65;;
52686;SDS011;38584;49.426;8.396;2023-02-12T06:09:09;42.63;;;25.30;;
52686;SDS011;38584;49.426;8.396;2023-02-12T06:11:35;43.00;;;25.20;;
52686;SDS011;38584;49.426;8.396;2023-02-12T06:14:14;40.75;;;25.45;;
52686;SDS011;38584;49.426;8.396;2023-02-12T06:16:43;39.50;;;22.25;;
52686;SDS011;38584;49.426;8.396;2023-02-12T06:19:09;44.85;;;24.65;;
52686;SDS011;38584;49.426;8.396;2023-02-12T06:21:37;40.60;;;23.08;;
52686;SDS011;38584;49.426;8.396;2023-02-12T06:24:21;38.63;;;24.58;;
52686;SDS011;38584;49.426;8.396;2023-02-12T06:26:52;40.47;;;24.42;;
52686;SDS011;38584;49.426;8.396;2023-02-12T06:29:21;40.95;;;25.25;;
52686;SDS011;38584;49.426;8.396;2023-02-12T06:31:47;42.25;;;25.30;;
52686;SDS011;38584;49.426;8.396;2023-02-12T06:34:15;40.55;;;25.80;;
52686;SDS011;38584;49.426;8.396;2023-02-12T06:36:42;41.92;;;25.98;;
52686;SDS011;38584;49.426;8.396;2023-02-12T06:39:09;41.53;;;26.15;;
52686;SDS011;38584;49.426;8.396;2023-02-12T06:41:37;47.22;;;26.23;;
52686;SDS011;38584;49.426;8.396;2023-02-12T06:44:12;40.63;;;25.15;;
52686;SDS011;38584;49.426;8.396;2023-02-12T06:46:47;41.60;;;25.67;;
52686;SDS011;38584;49.426;8.396;2023-02-12T06:49:15;46.65;;;26.08;;
52686;SDS011;38584;49.426;8.396;2023-02-12T06:51:41;42.13;;;25.65;;
52686;SDS011;38584;49.426;8.396;2023-02-12T06:54:13;43.20;;;25.88;;
52686;SDS011;38584;49.426;8.396;2023-02-12T06:56:39;47.92;;;27.35;;
52686;SDS011;38584;49.426;8.396;2023-02-12T06:59:04;44.13;;;26.20;;
52686;SDS011;38584;49.426;8.396;2023-02-12T07:01:33;46.13;;;25.95;;
52686;SDS011;38584;49.426;8.396;2023-02-12T07:04:04;40.80;;;25.85;;
52686;SDS011;38584;49.426;8.396;2023-02-12T07:06:30;41.75;;;25.10;;
52686;SDS011;38584;49.426;8.396;2023-02-12T07:08:57;44.72;;;26.40;;
52686;SDS011;38584;49.426;8.396;2023-02-12T07:11:23;44.00;;;25.98;;
52686;SDS011;38584;49.426;8.396;2023-02-12T07:13:53;43.55;;;26.73;;
52686;SDS011;38584;49.426;8.396;2023-02-12T07:16:21;47.08;;;27.15;;
52686;SDS011;38584;49.426;8.396;2023-02-12T07:18:50;44.13;;;26.30;;
52686;SDS011;38584;49.426;8.396;2023-02-12T07:21:15;42.80;;;26.42;;
52686;SDS011;38584;49.426;8.396;2023-02-12T07:23:45;40.92;;;26.10;;
52686;SDS011;38584;49.426;8.396;2023-02-12T07:26:17;47.38;;;28.45;;
52686;SDS011;38584;49.426;8.396;2023-02-12T07:28:43;49.45;;;28.73;;
52686;SDS011;38584;49.426;8.396;2023-02-12T07:31:10;47.22;;;30.25;;
52686;SDS011;38584;49.426;8.396;2023-02-12T07:33:39;46.92;;;29.92;;
52686;SDS011;38584;49.426;8.396;2023-02-12T07:36:06;50.20;;;29.95;;
52686;SDS011;38584;49.426;8.396;2023-02-12T07:38:43;50.70;;;31.48;;
52686;SDS011;38584;49.426;8.396;2023-02-12T07:41:16;50.40;;;30.67;;
52686;SDS011;38584;49.426;8.396;2023-02-12T07:43:44;55.80;;;32.33;;
52686;SDS011;38584;49.426;8.396;2023-02-12T07:46:11;54.05;;;32.22;;
52686;SDS011;38584;49.426;8.396;2023-02-12T07:48:36;52.30;;;32.00;;
52686;SDS011;38584;49.426;8.396;2023-02-12T07:51:03;59.50;;;31.80;;
52686;SDS011;38584;49.426;8.396;2023-02-12T07:53:29;56.17;;;31.77;;
52686;SDS011;38584;49.426;8.396;2023-02-12T07:56:11;56.47;;;32.47;;
52686;SDS011;38584;49.426;8.396;2023-02-12T07:58:44;55.15;;;32.17;;
52686;SDS011;38584;49.426;8.396;2023-02-12T08:01:18;53.78;;;32.00;;
52686;SDS011;38584;49.426;8.396;2023-02-12T08:03:47;50.25;;;30.52;;
52686;SDS011;38584;49.426;8.396;2023-02-12T08:06:17;55.20;;;30.58;;
52686;SDS011;38584;49.426;8.396;2023-02-12T08:08:46;43.20;;;28.45;;
52686;SDS011;38584;49.426;8.396;2023-02-12T08:11:14;52.05;;;29.90;;
52686;SDS011;38584;49.426;8.396;2023-02-12T08:13:43;50.83;;;29.05;;
52686;SDS011;38584;49.426;8.396;2023-02-12T08:16:19;49.67;;;29.10;;
52686;SDS011;38584;49.426;8.396;2023-02-12T08:18:46;51.97;;;28.83;;
52686;SDS011;38584;49.426;8.396;2023-02-12T08:21:18;49.67;;;29.55;;
52686;SDS011;38584;49.426;8.396;2023-02-12T08:23:48;53.90;;;31.20;;
52686;SDS011;38584;49.426;8.396;2023-02-12T08:28:48;50.03;;;31.33;;
52686;SDS011;38584;49.426;8.396;2023-02-12T08:31:26;45.80;;;29.15;;
52686;SDS011;38584;49.426;8.396;2023-02-12T08:33:55;51.10;;;30.48;;
52686;SDS011;38584;49.426;8.396;2023-02-12T08:36:24;47.13;;;28.63;;
52686;SDS011;38584;49.426;8.396;2023-02-12T08:38:51;49.40;;;29.63;;
52686;SDS011;38584;49.426;8.396;2023-02-12T08:41:23;45.65;;;28.35;;
52686;SDS011;38584;49.426;8.396;2023-02-12T08:43:52;46.05;;;28.10;;
52686;SDS011;38584;49.426;8.396;2023-02-12T08:46:22;48.83;;;28.58;;
52686;SDS011;38584;49.426;8.396;2023-02-12T08:49:06;50.40;;;29.17;;
52686;SDS011;38584;49.426;8.396;2023-02-12T08:51:34;48.05;;;29.65;;
52686;SDS011;38584;49.426;8.396;2023-02-12T08:54:03;47.95;;;29.35;;
52686;SDS011;38584;49.426;8.396;2023-02-12T08:56:36;46.45;;;29.30;;
52686;SDS011;38584;49.426;8.396;2023-02-12T08:59:02;46.65;;;28.15;;
52686;SDS011;38584;49.426;8.396;2023-02-12T09:01:29;46.80;;;30.25;;
52686;SDS011;38584;49.426;8.396;2023-02-12T09:03:55;50.15;;;29.45;;
52686;SDS011;38584;49.426;8.396;2023-02-12T09:06:26;47.15;;;28.88;;
52686;SDS011;38584;49.426;8.396;2023-02-12T09:08:53;47.90;;;29.25;;
52686;SDS011;38584;49.426;8.396;2023-02-12T09:11:23;48.10;;;30.13;;
52686;SDS011;38584;49.426;8.396;2023-02-12T09:13:54;50.58;;;29.15;;
52686;SDS011;38584;49.426;8.396;2023-02-12T09:16:24;51.55;;;30.27;;
52686;SDS011;38584;49.426;8.396;2023-02-12T09:18:53;51.50;;;30.25;;
52686;SDS011;38584;49.426;8.396;2023-02-12T09:21:19;48.00;;;29.83;;
52686;SDS011;38584;49.426;8.396;2023-02-12T09:23:50;47.60;;;28.98;;
52686;SDS011;38584;49.426;8.396;2023-02-12T09:26:17;47.75;;;28.75;;
52686;SDS011;38584;49.426;8.396;2023-02-12T09:28:45;45.55;;;28.88;;
52686;SDS011;38584;49.426;8.396;2023-02-12T09:31:11;47.40;;;29.25;;
52686;SDS011;38584;49.426;8.396;2023-02-12T09:33:42;46.65;;;28.90;;
52686;SDS011;38584;49.426;8.396;2023-02-12T09:36:08;45.88;;;28.80;;
52686;SDS011;38584;49.426;8.396;2023-02-12T09:38:36;52.25;;;30.95;;
52686;SDS011;38584;49.426;8.396;2023-02-12T09:52:23;52.88;;;31.38;;
52686;SDS011;38584;49.426;8.396;2023-02-12T09:54:50;51.45;;;30.85;;
52686;SDS011;38584;49.426;8.396;2023-02-12T09:57:39;49.00;;;29.95;;
52686;SDS011;38584;49.426;8.396;2023-02-12T10:00:08;47.47;;;30.55;;
52686;SDS011;38584;49.426;8.396;2023-02-12T10:02:34;47.72;;;30.33;;
52686;SDS011;38584;49.426;8.396;2023-02-12T10:05:22;50.10;;;30.38;;
52686;SDS011;38584;49.426;8.396;2023-02-12T10:08:01;53.65;;;32.47;;
52686;SDS011;38584;49.426;8.396;2023-02-12T10:13:30;51.85;;;31.98;;
52686;SDS011;38584;49.426;8.396;2023-02-12T10:16:45;52.83;;;31.60;;
52686;SDS011;38584;49.426;8.396;2023-02-12T10:24:35;53.85;;;31.88;;
52686;SDS011;38584;49.426;8.396;2023-02-12T10:32:59;53.67;;;31.98;;
52686;SDS011;38584;49.426;8.396;2023-02-12T10:35:38;52.67;;;31.60;;
52686;SDS011;38584;49.426;8.396;2023-02-12T10:40:59;53.22;;;32.13;;
52686;SDS011;38584;49.426;8.396;2023-02-12T10:43:26;54.33;;;31.58;;
52686;SDS011;38584;49.426;8.396;2023-02-12T10:45:54;54.08;;;32.17;;
52686;SDS011;38584;49.426;8.396;2023-02-12T10:48:22;52.30;;;30.55;;
52686;SDS011;38584;49.426;8.396;2023-02-12T10:53:40;58.33;;;31.15;;
52686;SDS011;38584;49.426;8.396;2023-02-12T10:58:35;55.38;;;32.05;;
52686;SDS011;38584;49.426;8.396;2023-02-12T11:03:54;55.53;;;32.38;;
52686;SDS011;38584;49.426;8.396;2023-02-12T11:06:22;57.50;;;34.33;;
52686;SDS011;38584;49.426;8.396;2023-02-12T11:08:55;54.90;;;32.67;;
52686;SDS011;38584;49.426;8.396;2023-02-12T11:11:22;51.78;;;31.60;;
52686;SDS011;38584;49.426;8.396;2023-02-12T11:16:52;52.20;;;31.70;;
52686;SDS011;38584;49.426;8.396;2023-02-12T11:19:24;50.65;;;32.38;;
52686;SDS011;38584;49.426;8.396;2023-02-12T11:22:04;54.42;;;29.98;;
52686;SDS011;38584;49.426;8.396;2023-02-12T11:24:32;48.90;;;29.63;;
52686;SDS011;38584;49.426;8.396;2023-02-12T11:29:39;49.05;;;29.90;;
52686;SDS011;38584;49.426;8.396;2023-02-12T11:32:06;50.05;;;30.10;;
52686;SDS011;38584;49.426;8.396;2023-02-12T11:34:35;48.55;;;27.70;;
52686;SDS011;38584;49.426;8.396;2023-02-12T11:37:01;47.42;;;26.85;;
52686;SDS011;38584;49.426;8.396;2023-02-12T11:39:31;40.10;;;22.92;;
52686;SDS011;38584;49.426;8.396;2023-02-12T11:44:34;24.48;;;13.63;;
52686;SDS011;38584;49.426;8.396;2023-02-12T11:47:02;27.55;;;14.60;;
52686;SDS011;38584;49.426;8.396;2023-02-12T11:49:33;23.48;;;13.30;;
52686;SDS011;38584;49.426;8.396;2023-02-12T11:52:17;20.35;;;10.45;;
52686;SDS011;38584;49.426;8.396;2023-02-12T11:54:49;19.58;;;9.52;;
52686;SDS011;38584;49.426;8.396;2023-02-12T12:00:02;18.95;;;10.27;;
52686;SDS011;38584;49.426;8.396;2023-02-12T12:02:33;22.30;;;11.05;;
52686;SDS011;38584;49.426;8.396;2023-02-12T12:05:07;22.90;;;12.05;;
52686;SDS011;38584;49.426;8.396;2023-02-12T12:07:42;22.08;;;10.82;;
52686;SDS011;38584;49.426;8.396;2023-02-12T12:13:32;23.17;;;12.50;;
52686;SDS011;38584;49.426;8.396;2023-02-12T12:16:26;20.77;;;11.45;;
52686;SDS011;38584;49.426;8.396;2023-02-12T12:19:26;18.35;;;9.02;;
52686;SDS011;38584;49.426;8.396;2023-02-12T12:22:20;20.17;;;9.68;;
52686;SDS011;38584;49.426;8.396;2023-02-12T12:25:09;19.23;;;9.85;;
52686;SDS011;38584;49.426;8.396;2023-02-12T12:39:14;15.18;;;7.43;;
52686;SDS011;38584;49.426;8.396;2023-02-12T12:55:43;11.35;;;4.35;;
52686;SDS011;38584;49.426;8.396;2023-02-12T13:15:44;12.00;;;4.95;;
52686;SDS011;38584;49.426;8.396;2023-02-12T13:29:16;10.27;;;3.70;;
52686;SDS011;38584;49.426;8.396;2023-02-12T13:31:45;9.50;;;3.45;;
52686;SDS011;38584;49.426;8.396;2023-02-12T13:34:13;8.45;;;3.35;;
52686;SDS011;38584;49.426;8.396;2023-02-12T13:36:41;10.43;;;3.70;;
52686;SDS011;38584;49.426;8.396;2023-02-12T13:39:11;9.40;;;3.63;;
52686;SDS011;38584;49.426;8.396;2023-02-12T13:41:38;7.97;;;3.25;;
52686;SDS011;38584;49.426;8.396;2023-02-12T13:44:13;8.43;;;3.47;;
52686;SDS011;38584;49.426;8.396;2023-02-12T13:46:54;8.38;;;3.15;;
52686;SDS011;38584;49.426;8.396;2023-02-12T13:50:12;7.90;;;3.17;;
52686;SDS011;38584;49.426;8.396;2023-02-12T13:52:22;8.00;;;3.00;;
52686;SDS011;38584;49.426;8.396;2023-02-12T14:04:20;9.23;;;3.63;;
52686;SDS011;38584;49.426;8.396;2023-02-12T14:07:06;8.68;;;3.60;;
52686;SDS011;38584;49.426;8.396;2023-02-12T14:09:59;9.40;;;3.72;;
52686;SDS011;38584;49.426;8.396;2023-02-12T14:12:27;10.75;;;4.65;;
52686;SDS011;38584;49.426;8.396;2023-02-12T14:14:55;11.68;;;5.50;;
52686;SDS011;38584;49.426;8.396;2023-02-12T14:18:05;11.73;;;5.57;;
52686;SDS011;38584;49.426;8.396;2023-02-12T14:20:35;11.50;;;5.63;;
52686;SDS011;38584;49.426;8.396;2023-02-12T14:23:18;12.10;;;5.40;;
52686;SDS011;38584;49.426;8.396;2023-02-12T14:31:37;12.48;;;5.15;;
52686;SDS011;38584;49.426;8.396;2023-02-12T14:36:35;13.32;;;5.32;;
52686;SDS011;38584;49.426;8.396;2023-02-12T14:41:48;14.13;;;5.95;;
52686;SDS011;38584;49.426;8.396;2023-02-12T14:46:52;15.27;;;6.28;;
52686;SDS011;38584;49.426;8.396;2023-02-12T14:52:25;13.48;;;6.05;;
52686;SDS011;38584;49.426;8.396;2023-02-12T14:54:59;13.35;;;5.40;;
52686;SDS011;38584;49.426;8.396;2023-02-12T14:57:29;14.52;;;5.57;;
52686;SDS011;38584;49.426;8.396;2023-02-12T15:08:21;17.92;;;7.47;;
52686;SDS011;38584;49.426;8.396;2023-02-12T15:10:51;16.20;;;7.70;;
52686;SDS011;38584;49.426;8.396;2023-02-12T15:16:23;16.98;;;7.43;;
52686;SDS011;38584;49.426;8.396;2023-02-12T15:21:30;19.00;;;9.90;;
52686;SDS011;38584;49.426;8.396;2023-02-12T15:23:59;18.23;;;9.57;;
52686;SDS011;38584;49.426;8.396;2023-02-12T15:26:33;24.25;;;9.73;;
52686;SDS011;38584;49.426;8.396;2023-02-12T15:29:01;25.33;;;9.88;;
52686;SDS011;38584;49.426;8.396;2023-02-12T15:31:27;19.92;;;9.65;;
52686;SDS011;38584;49.426;8.396;2023-02-12T15:33:54;19.40;;;9.82;;
52686;SDS011;38584;49.426;8.396;2023-02-12T15:36:22;17.42;;;9.00;;
52686;SDS011;38584;49.426;8.396;2023-02-12T15:38:59;18.45;;;9.70;;
52686;SDS011;38584;49.426;8.396;2023-02-12T15:43:56;18.05;;;9.30;;
52686;SDS011;38584;49.426;8.396;2023-02-12T15:46:25;18.85;;;9.30;;
52686;SDS011;38584;49.426;8.396;2023-02-12T15:48:53;19.90;;;9.68;;
52686;SDS011;38584;49.426;8.396;2023-02-12T15:53:54;18.02;;;9.57;;
52686;SDS011;38584;49.426;8.396;2023-02-12T15:56:22;18.65;;;9.23;;
52686;SDS011;38584;49.426;8.396;2023-02-12T15:58:49;23.55;;;13.15;;
52686;SDS011;38584;49.426;8.396;2023-02-12T16:01:25;26.73;;;15.27;;
52686;SDS011;38584;49.426;8.396;2023-02-12T16:03:55;31.23;;;15.95;;
52686;SDS011;38584;49.426;8.396;2023-02-12T16:06:32;26.00;;;15.48;;
52686;SDS011;38584;49.426;8.396;2023-02-12T16:09:01;31.83;;;16.60;;
52686;SDS011;38584;49.426;8.396;2023-02-12T16:11:30;27.35;;;15.93;;
52686;SDS011;38584;49.426;8.396;2023-02-12T16:14:03;28.15;;;15.27;;
52686;SDS011;38584;49.426;8.396;2023-02-12T16:16:39;28.80;;;16.15;;
52686;SDS011;38584;49.426;8.396;2023-02-12T16:21:50;28.52;;;15.73;;
52686;SDS011;38584;49.426;8.396;2023-02-12T16:24:24;30.48;;;16.00;;
52686;SDS011;38584;49.426;8.396;2023-02-12T16:27:20;29.80;;;16.70;;
52686;SDS011;38584;49.426;8.396;2023-02-12T16:29:55;26.48;;;15.43;;
52686;SDS011;38584;49.426;8.396;2023-02-12T16:32:31;31.17;;;16.23;;
52686;SDS011;38584;49.426;8.396;2023-02-12T16:35:03;28.95;;;16.95;;
52686;SDS011;38584;49.426;8.396;2023-02-12T16:37:41;30.95;;;17.35;;
52686;SDS011;38584;49.426;8.396;2023-02-12T16:50:33;30.20;;;16.83;;
52686;SDS011;38584;49.426;8.396;2023-02-12T16:53:02;33.80;;;17.70;;
52686;SDS011;38584;49.426;8.396;2023-02-12T16:55:29;31.50;;;17.63;;
52686;SDS011;38584;49.426;8.396;2023-02-12T16:57:58;33.95;;;18.63;;
52686;SDS011;38584;49.426;8.396;2023-02-12T17:00:30;37.55;;;20.35;;
52686;SDS011;38584;49.426;8.396;2023-02-12T17:02:55;36.92;;;21.13;;
52686;SDS011;38584;49.426;8.396;2023-02-12T17:05:21;38.85;;;20.48;;
52686;SDS011;38584;49.426;8.396;2023-02-12T17:07:47;36.10;;;19.33;;
52686;SDS011;38584;49.426;8.396;2023-02-12T17:10:13;39.50;;;20.45;;
52686;SDS011;38584;49.426;8.396;2023-02-12T17:12:46;33.70;;;18.90;;
52686;SDS011;38584;49.426;8.396;2023-02-12T17:15:34;36.27;;;19.23;;
52686;SDS011;38584;49.426;8.396;2023-02-12T17:18:02;38.90;;;20.55;;
52686;SDS011;38584;49.426;8.396;2023-02-12T17:20:27;39.30;;;21.08;;
52686;SDS011;38584;49.426;8.396;2023-02-12T17:22:55;42.08;;;21.48;;
52686;SDS011;38584;49.426;8.396;2023-02-12T17:25:23;41.95;;;22.73;;
52686;SDS011;38584;49.426;8.396;2023-02-12T17:27:49;44.05;;;22.67;;
52686;SDS011;38584;49.426;8.396;2023-02-12T17:30:15;43.67;;;23.40;;
52686;SDS011;38584;49.426;8.396;2023-02-12T17:32:42;49.70;;;23.60;;
52686;SDS011;38584;49.426;8.396;2023-02-12T17:35:19;45.42;;;23.17;;
52686;SDS011;38584;49.426;8.396;2023-02-12T17:37:45;46.70;;;24.00;;
52686;SDS011;38584;49.426;8.396;2023-02-12T17:40:15;46.33;;;24.75;;
52686;SDS011;38584;49.426;8.396;2023-02-12T17:42:40;48.15;;;24.50;;
52686;SDS011;38584;49.426;8.396;2023-02-12T17:45:05;50.63;;;24.90;;
52686;SDS011;38584;49.426;8.396;2023-02-12T17:47:31;49.40;;;25.58;;
52686;SDS011;38584;49.426;8.396;2023-02-12T17:49:58;45.38;;;24.70;;
52686;SDS011;38584;49.426;8.396;2023-02-12T17:52:32;52.83;;;25.73;;
52686;SDS011;38584;49.426;8.396;2023-02-12T17:54:57;51.67;;;27.35;;
52686;SDS011;38584;49.426;8.396;2023-02-12T17:57:25;52.08;;;26.58;;
52686;SDS011;38584;49.426;8.396;2023-02-12T17:59:51;55.90;;;28.35;;
52686;SDS011;38584;49.426;8.396;2023-02-12T18:02:16;53.90;;;27.67;;
52686;SDS011;38584;49.426;8.396;2023-02-12T18:04:41;60.28;;;27.77;;
52686;SDS011;38584;49.426;8.396;2023-02-12T18:07:10;61.70;;;28.00;;
52686;SDS011;38584;49.426;8.396;2023-02-12T18:09:35;56.97;;;28.65;;
52686;SDS011;38584;49.426;8.396;2023-02-12T18:12:02;52.33;;;26.23;;
52686;SDS011;38584;49.426;8.396;2023-02-12T18:14:27;51.40;;;26.17;;
52686;SDS011;38584;49.426;8.396;2023-02-12T18:16:52;55.72;;;26.02;;
52686;SDS011;38584;49.426;8.396;2023-02-12T18:19:21;54.30;;;26.58;;
52686;SDS011;38584;49.426;8.396;2023-02-12T18:21:46;54.35;;;27.73;;
52686;SDS011;38584;49.426;8.396;2023-02-12T18:24:12;55.22;;;26.90;;
52686;SDS011;38584;49.426;8.396;2023-02-12T18:26:40;52.83;;;27.02;;